createdAt,value
2022-09-28T00:01:17.547Z,98496.53
2022-09-28T00:04:20.401Z,98496.31
2022-09-28T00:07:22.057Z,98490.50
2022-09-28T00:10:23.900Z,98478.00
2022-09-28T00:13:25.645Z,98480.09
2022-09-28T00:16:33.194Z,98475.97
2022-09-28T00:19:34.990Z,98471.41
2022-09-28T00:22:37.421Z,98468.53
2022-09-28T00:25:39.115Z,98463.56
2022-09-28T00:28:40.774Z,98462.06
2022-09-28T00:31:44.022Z,98453.50
2022-09-28T00:34:45.969Z,98457.03
2022-09-28T00:37:48.897Z,98455.13
2022-09-28T00:40:50.723Z,98448.09
2022-09-28T00:43:52.801Z,98439.81
2022-09-28T00:47:00.700Z,98434.38
2022-09-28T00:50:06.759Z,98431.06
2022-09-28T00:53:13.364Z,98430.34
2022-09-28T00:56:19.135Z,98428.72
2022-09-28T00:59:24.322Z,98411.69
2022-09-28T01:02:27.518Z,98411.50
2022-09-28T01:05:30.192Z,98412.22
2022-09-28T01:08:34.348Z,98403.94
2022-09-28T01:11:38.458Z,98398.41
2022-09-28T01:14:43.299Z,98398.88
2022-09-28T01:17:59.735Z,98391.75
2022-09-28T01:21:16.614Z,98372.47
2022-09-28T01:24:41.986Z,98372.91
2022-09-28T01:27:51.109Z,98370.38
2022-09-28T01:31:03.667Z,98376.41
2022-09-28T01:34:13.557Z,98368.47
2022-09-28T01:37:18.485Z,98362.59
2022-09-28T01:40:21.819Z,98349.91
2022-09-28T01:43:26.535Z,98349.41
2022-09-28T01:46:34.239Z,98348.28
2022-09-28T01:49:42.174Z,98350.72
2022-09-28T01:53:23.798Z,98337.81
2022-09-28T01:56:30.518Z,98332.97
2022-09-28T01:59:36.555Z,98341.53
2022-09-28T02:02:42.342Z,98333.69
2022-09-28T02:05:49.474Z,98332.84
2022-09-28T02:08:54.349Z,98328.53
2022-09-28T02:12:05.706Z,98320.06
2022-09-28T02:15:14.794Z,98320.34
2022-09-28T02:18:17.354Z,98326.19
2022-09-28T02:21:26.242Z,98331.34
2022-09-28T02:24:35.291Z,98321.25
2022-09-28T02:27:42.895Z,98314.19
2022-09-28T02:30:46.362Z,98312.19
2022-09-28T02:33:51.197Z,98306.31
2022-09-28T02:36:53.481Z,98309.66
2022-09-28T02:39:55.382Z,98300.28
2022-09-28T02:43:04.470Z,98295.50
2022-09-28T02:46:15.569Z,98295.41
2022-09-28T02:49:30.119Z,98302.19
2022-09-28T02:52:54.459Z,98300.56
2022-09-28T02:56:13.868Z,98301.16
2022-09-28T02:59:27.915Z,98295.50
2022-09-28T03:02:37.823Z,98306.41
2022-09-28T03:05:47.032Z,98288.34
2022-09-28T03:08:56.113Z,98297.50
2022-09-28T03:12:06.577Z,98282.69
2022-09-28T03:15:14.151Z,98277.47
2022-09-28T03:18:18.493Z,98290.16
2022-09-28T03:21:20.366Z,98291.19
2022-09-28T03:24:22.195Z,98291.97
2022-09-28T03:27:23.942Z,98290.88
2022-09-28T03:30:25.951Z,98289.78
2022-09-28T03:33:29.002Z,98292.69
2022-09-28T03:36:30.729Z,98298.72
2022-09-28T03:39:32.674Z,98293.91
2022-09-28T03:42:36.637Z,98295.41
2022-09-28T03:45:38.516Z,98297.94
2022-09-28T03:48:41.766Z,98296.53
2022-09-28T03:51:45.272Z,98299.72
2022-09-28T03:54:49.244Z,98293.09
2022-09-28T03:57:57.251Z,98299.22
2022-09-28T04:01:03.265Z,98293.38
2022-09-28T04:04:06.448Z,98286.34
2022-09-28T04:07:08.217Z,98292.81
2022-09-28T04:10:10.019Z,98299.16
2022-09-28T04:13:12.097Z,98292.81
2022-09-28T04:16:16.162Z,98299.97
2022-09-28T04:19:25.309Z,98297.66
2022-09-28T04:22:37.624Z,98296.66
2022-09-28T04:25:39.636Z,98301.59
2022-09-28T04:29:05.450Z,98290.19
2022-09-28T04:32:09.281Z,98290.19
2022-09-28T04:35:14.928Z,98297.97
2022-09-28T04:38:26.806Z,98290.09
2022-09-28T04:41:37.695Z,98293.75
2022-09-28T04:44:39.442Z,98296.03
2022-09-28T04:47:43.812Z,98303.91
2022-09-28T04:51:07.025Z,98305.34
2022-09-28T04:54:08.738Z,98310.59
2022-09-28T04:57:10.475Z,98304.50
2022-09-28T05:00:14.322Z,98306.34
2022-09-28T05:03:25.350Z,98309.06
2022-09-28T05:06:51.293Z,98300.09
2022-09-28T05:09:55.069Z,98310.09
2022-09-28T05:12:56.775Z,98308.06
2022-09-28T05:16:04.417Z,98316.72
2022-09-28T05:19:10.536Z,98326.00
2022-09-28T05:22:14.797Z,98320.47
2022-09-28T05:25:20.263Z,98329.44
2022-09-28T05:28:37.073Z,98335.19
2022-09-28T05:31:57.290Z,98336.28
2022-09-28T05:35:18.877Z,98335.88
2022-09-28T05:38:23.668Z,98344.97
2022-09-28T05:41:25.486Z,98348.00
2022-09-28T05:44:27.153Z,98347.88
2022-09-28T05:47:30.157Z,98353.25
2022-09-28T05:50:31.960Z,98357.97
2022-09-28T05:53:35.024Z,98363.59
2022-09-28T05:56:36.774Z,98356.75
2022-09-28T05:59:40.980Z,98363.03
2022-09-28T06:02:42.717Z,98366.25
2022-09-28T06:05:47.431Z,98368.63
2022-09-28T06:08:50.708Z,98368.25
2022-09-28T06:12:16.072Z,98377.94
2022-09-28T06:15:21.135Z,98371.50
2022-09-28T06:18:22.879Z,98372.78
2022-09-28T06:21:39.693Z,98376.81
2022-09-28T06:24:43.449Z,98377.38
2022-09-28T06:27:54.301Z,98391.38
2022-09-28T06:30:55.992Z,98390.53
2022-09-28T06:33:57.827Z,98403.38
2022-09-28T06:36:59.597Z,98395.63
2022-09-28T06:40:04.962Z,98402.34
2022-09-28T06:43:14.698Z,98405.66
2022-09-28T06:46:38.069Z,98405.53
2022-09-28T06:50:02.993Z,98405.16
2022-09-28T06:53:24.905Z,98421.31
2022-09-28T06:56:44.940Z,98419.09
2022-09-28T06:59:46.625Z,98432.84
2022-09-28T07:02:48.289Z,98429.78
2022-09-28T07:06:11.398Z,98432.94
2022-09-28T07:09:29.642Z,98433.81
2022-09-28T07:12:55.198Z,98435.94
2022-09-28T07:16:01.887Z,98441.09
2022-09-28T07:19:03.701Z,98448.84
2022-09-28T07:22:05.799Z,98449.00
2022-09-28T07:25:09.182Z,98460.38
2022-09-28T07:28:34.043Z,98450.59
2022-09-28T07:31:54.166Z,98459.00
2022-09-28T07:35:07.993Z,98457.28
2022-09-28T07:38:20.441Z,98461.06
2022-09-28T07:41:32.433Z,98471.47
2022-09-28T07:44:38.850Z,98480.97
2022-09-28T07:47:40.595Z,98483.53
2022-09-28T07:50:52.165Z,98472.19
2022-09-28T07:54:13.561Z,98482.31
2022-09-28T07:57:33.131Z,98489.25
2022-09-28T08:01:01.118Z,98485.91
2022-09-28T08:04:03.241Z,98494.75
2022-09-28T08:07:09.313Z,98486.06
2022-09-28T08:10:11.434Z,98493.03
2022-09-28T08:13:37.679Z,98495.19
2022-09-28T08:16:54.681Z,98500.34
2022-09-28T08:20:26.428Z,98513.06
2022-09-28T08:23:28.333Z,98514.47
2022-09-28T08:26:30.082Z,98527.19
2022-09-28T08:29:32.637Z,98520.31
2022-09-28T08:32:55.597Z,98528.69
2022-09-28T08:36:26.554Z,98526.28
2022-09-28T08:39:37.429Z,98527.47
2022-09-28T08:43:41.367Z,98528.44
2022-09-28T08:47:36.378Z,98532.16
2022-09-28T08:51:18.962Z,98533.38
2022-09-28T08:54:48.748Z,98532.34
2022-09-28T08:58:05.160Z,98531.06
2022-09-28T09:01:16.745Z,98535.47
2022-09-28T09:04:19.884Z,98536.16
2022-09-28T09:07:45.718Z,98533.94
2022-09-28T09:10:52.273Z,98537.28
2022-09-28T09:14:30.850Z,98540.88
2022-09-28T09:17:44.814Z,98547.41
2022-09-28T09:21:13.795Z,98551.28
2022-09-28T09:24:27.133Z,98554.00
2022-09-28T09:27:45.696Z,98554.88
2022-09-28T09:30:57.571Z,98548.25
2022-09-28T09:34:18.255Z,98551.56
2022-09-28T09:37:37.466Z,98551.97
2022-09-28T09:41:16.475Z,98556.03
2022-09-28T09:44:54.741Z,98545.06
2022-09-28T09:48:21.356Z,98547.63
2022-09-28T09:51:37.231Z,98544.13
2022-09-28T09:54:44.428Z,98549.47
2022-09-28T09:58:00.762Z,98551.38
2022-09-28T10:01:13.569Z,98540.81
2022-09-28T10:04:50.037Z,98552.00
2022-09-28T10:08:02.930Z,98539.16
2022-09-28T10:11:09.733Z,98541.19
2022-09-28T10:14:19.931Z,98549.88
2022-09-28T10:17:27.613Z,98554.09
2022-09-28T10:20:48.981Z,98555.84
2022-09-28T10:23:59.613Z,98547.72
2022-09-28T10:27:07.564Z,98557.16
2022-09-28T10:30:18.307Z,98546.13
2022-09-28T10:33:29.221Z,98556.53
2022-09-28T10:36:38.519Z,98552.81
2022-09-28T10:39:49.414Z,98561.03
2022-09-28T10:42:59.153Z,98553.44
2022-09-28T10:46:06.596Z,98555.50
2022-09-28T10:49:16.794Z,98561.06
2022-09-28T10:52:38.782Z,98569.44
2022-09-28T10:55:40.704Z,98560.13
2022-09-28T10:58:44.220Z,98565.38
2022-09-28T11:01:59.479Z,98558.13
2022-09-28T11:05:03.744Z,98555.03
2022-09-28T11:08:25.090Z,98557.09
2022-09-28T11:11:29.136Z,98562.63
2022-09-28T11:14:42.373Z,98560.84
2022-09-28T11:17:51.257Z,98556.09
2022-09-28T11:21:11.154Z,98559.91
2022-09-28T11:24:20.636Z,98562.00
2022-09-28T11:27:25.459Z,98573.75
2022-09-28T11:30:31.140Z,98567.69
2022-09-28T11:34:31.052Z,98565.50
2022-09-28T11:37:53.540Z,98562.59
2022-09-28T11:41:38.434Z,98565.66
2022-09-28T11:44:46.267Z,98567.84
2022-09-28T11:47:57.512Z,98563.19
2022-09-28T11:51:04.299Z,98563.13
2022-09-28T11:54:14.664Z,98568.03
2022-09-28T11:57:22.177Z,98567.47
2022-09-28T12:00:25.032Z,98563.31
2022-09-28T12:03:40.992Z,98557.44
2022-09-28T12:06:49.622Z,98567.97
2022-09-28T12:09:55.650Z,98561.41
2022-09-28T12:13:02.923Z,98566.53
2022-09-28T12:16:32.762Z,98564.09
2022-09-28T12:19:41.136Z,98561.22
2022-09-28T12:22:46.944Z,98562.63
2022-09-28T12:25:55.054Z,98561.97
2022-09-28T12:29:01.824Z,98557.56
2022-09-28T12:32:12.690Z,98564.50
2022-09-28T12:35:18.136Z,98563.91
2022-09-28T12:38:35.714Z,98560.09
2022-09-28T12:41:50.007Z,98563.25
2022-09-28T12:45:13.733Z,98559.31
2022-09-28T12:48:36.097Z,98558.97
2022-09-28T12:51:47.284Z,98560.59
2022-09-28T12:55:04.719Z,98559.16
2022-09-28T12:58:22.562Z,98557.41
2022-09-28T13:01:59.442Z,98556.25
2022-09-28T13:05:19.504Z,98562.22
2022-09-28T13:08:30.945Z,98563.06
2022-09-28T13:11:43.790Z,98560.69
2022-09-28T13:15:11.089Z,98556.66
2022-09-28T13:18:21.713Z,98564.25
2022-09-28T13:21:32.446Z,98561.63
2022-09-28T13:24:37.593Z,98555.19
2022-09-28T13:27:46.116Z,98558.06
2022-09-28T13:30:50.277Z,98555.91
2022-09-28T13:33:53.227Z,98559.59
2022-09-28T13:37:21.523Z,98552.97
2022-09-28T13:41:06.666Z,98555.19
2022-09-28T13:44:27.484Z,98557.00
2022-09-28T13:47:51.703Z,98555.25
2022-09-28T13:51:31.791Z,98549.88
2022-09-28T13:54:50.738Z,98555.00
2022-09-28T13:57:56.911Z,98555.41
2022-09-28T14:01:07.199Z,98557.06
2022-09-28T14:04:16.575Z,98562.03
2022-09-28T14:07:23.740Z,98562.53
2022-09-28T14:10:49.726Z,98560.78
2022-09-28T14:14:23.228Z,98560.63
2022-09-28T14:17:57.574Z,98561.94
2022-09-28T14:21:19.631Z,98559.00
2022-09-28T14:24:34.602Z,98559.88
2022-09-28T14:27:48.765Z,98560.97
2022-09-28T14:30:53.559Z,98570.50
2022-09-28T14:33:58.853Z,98566.16
2022-09-28T14:37:21.824Z,98574.56
2022-09-28T14:40:49.379Z,98568.06
2022-09-28T14:44:00.790Z,98570.19
2022-09-28T14:47:33.825Z,98566.53
2022-09-28T14:50:36.974Z,98574.31
2022-09-28T14:53:38.827Z,98578.09
2022-09-28T14:56:45.065Z,98580.31
2022-09-28T14:59:47.723Z,98586.28
2022-09-28T15:02:52.605Z,98585.13
2022-09-28T15:05:55.683Z,98589.72
2022-09-28T15:08:57.387Z,98584.28
2022-09-28T15:12:00.767Z,98586.75
2022-09-28T15:15:04.576Z,98585.22
2022-09-28T15:18:27.525Z,98589.84
2022-09-28T15:21:35.596Z,98585.00
2022-09-28T15:24:38.318Z,98581.41
2022-09-28T15:27:41.319Z,98584.44
2022-09-28T15:30:43.825Z,98589.25
2022-09-28T15:34:04.062Z,98583.81
2022-09-28T15:37:11.841Z,98589.41
2022-09-28T15:40:17.286Z,98587.94
2022-09-28T15:43:26.826Z,98591.09
2022-09-28T15:46:35.008Z,98595.91
2022-09-28T15:49:43.645Z,98595.91
2022-09-28T15:52:54.033Z,98585.06
2022-09-28T15:56:03.498Z,98596.22
2022-09-28T15:59:10.582Z,98599.31
2022-09-28T16:02:16.501Z,98602.97
2022-09-28T16:05:35.869Z,98600.34
2022-09-28T16:08:41.991Z,98606.13
2022-09-28T16:11:43.919Z,98604.88
2022-09-28T16:14:48.444Z,98608.94
2022-09-28T16:17:52.415Z,98608.81
2022-09-28T16:20:56.183Z,98615.13
2022-09-28T16:23:59.531Z,98612.09
2022-09-28T16:27:03.666Z,98614.09
2022-09-28T16:30:24.262Z,98617.25
2022-09-28T16:33:29.318Z,98609.91
2022-09-28T16:36:42.615Z,98618.59
2022-09-28T16:39:45.646Z,98617.50
2022-09-28T16:42:49.312Z,98627.25
2022-09-28T16:45:51.337Z,98627.59
2022-09-28T16:48:55.239Z,98629.63
2022-09-28T16:51:57.114Z,98632.25
2022-09-28T16:55:36.156Z,98634.53
2022-09-28T16:58:39.085Z,98631.50
2022-09-28T17:01:44.014Z,98632.84
2022-09-28T17:04:47.795Z,98627.78
2022-09-28T17:07:59.123Z,98634.06
2022-09-28T17:11:15.507Z,98634.66
2022-09-28T17:14:18.515Z,98640.75
2022-09-28T17:17:21.171Z,98647.31
2022-09-28T17:20:29.421Z,98651.50
2022-09-28T17:23:31.105Z,98655.34
2022-09-28T17:26:35.917Z,98648.44
2022-09-28T17:29:37.554Z,98663.59
2022-09-28T17:32:44.733Z,98658.78
2022-09-28T17:35:46.737Z,98664.25
2022-09-28T17:38:49.511Z,98674.31
2022-09-28T17:41:53.042Z,98669.00
2022-09-28T17:44:54.657Z,98668.56
2022-09-28T17:47:56.371Z,98668.84
2022-09-28T17:50:59.811Z,98665.09
2022-09-28T17:54:02.049Z,98666.31
2022-09-28T17:57:05.133Z,98676.50
2022-09-28T18:00:07.973Z,98678.81
2022-09-28T18:03:14.464Z,98676.06
2022-09-28T18:06:19.735Z,98680.84
2022-09-28T18:09:25.249Z,98685.19
2022-09-28T18:12:28.448Z,98685.66
2022-09-28T18:15:30.149Z,98700.66
2022-09-28T18:18:39.815Z,98697.81
2022-09-28T18:21:41.440Z,98697.34
2022-09-28T18:24:43.179Z,98700.19
2022-09-28T18:27:46.239Z,98692.13
2022-09-28T18:30:47.915Z,98690.53
2022-09-28T18:33:49.645Z,98690.69
2022-09-28T18:36:51.452Z,98689.53
2022-09-28T18:39:53.290Z,98692.84
2022-09-28T18:42:56.553Z,98689.78
2022-09-28T18:45:58.489Z,98684.97
2022-09-28T18:49:00.168Z,98687.81
2022-09-28T18:52:01.993Z,98690.97
2022-09-28T18:55:05.568Z,98704.72
2022-09-28T18:58:10.037Z,98701.03
2022-09-28T19:01:29.568Z,98696.47
2022-09-28T19:04:32.347Z,98712.19
2022-09-28T19:07:34.621Z,98711.41
2022-09-28T19:10:36.522Z,98708.00
2022-09-28T19:13:39.982Z,98711.41
2022-09-28T19:16:42.780Z,98717.97
2022-09-28T19:19:44.972Z,98714.00
2022-09-28T19:22:50.290Z,98716.22
2022-09-28T19:25:51.965Z,98714.19
2022-09-28T19:28:55.637Z,98710.19
2022-09-28T19:31:57.946Z,98706.31
2022-09-28T19:34:59.732Z,98707.59
2022-09-28T19:38:01.490Z,98709.72
2022-09-28T19:41:08.593Z,98713.06
2022-09-28T19:44:16.722Z,98716.47
2022-09-28T19:47:21.604Z,98716.56
2022-09-28T19:50:23.996Z,98719.34
2022-09-28T19:53:27.653Z,98724.38
2022-09-28T19:56:32.024Z,98727.31
2022-09-28T19:59:35.598Z,98727.06
2022-09-28T20:02:37.393Z,98728.25
2022-09-28T20:05:41.332Z,98743.00
2022-09-28T20:08:44.192Z,98745.63
2022-09-28T20:11:46.793Z,98745.66
2022-09-28T20:14:49.810Z,98749.44
2022-09-28T20:17:51.452Z,98748.69
2022-09-28T20:21:01.361Z,98754.88
2022-09-28T20:24:04.740Z,98754.94
2022-09-28T20:27:07.175Z,98759.81
2022-09-28T20:30:11.818Z,98760.72
2022-09-28T20:33:19.085Z,98752.06
2022-09-28T20:36:31.941Z,98763.03
2022-09-28T20:39:34.452Z,98762.31
2022-09-28T20:42:36.128Z,98767.44
2022-09-28T20:45:39.111Z,98771.94
2022-09-28T20:48:41.018Z,98761.66
2022-09-28T20:51:42.727Z,98778.00
2022-09-28T20:54:44.549Z,98778.94
2022-09-28T20:57:46.216Z,98773.28
2022-09-28T21:00:49.270Z,98780.56
2022-09-28T21:03:52.578Z,98781.84
2022-09-28T21:06:54.254Z,98780.56
2022-09-28T21:09:55.925Z,98773.16
2022-09-28T21:12:57.674Z,98778.00
2022-09-28T21:16:03.486Z,98780.47
2022-09-28T21:19:05.165Z,98774.72
2022-09-28T21:22:07.550Z,98775.91
2022-09-28T21:25:09.526Z,98769.56
2022-09-28T21:28:11.651Z,98768.53
2022-09-28T21:31:14.844Z,98768.75
2022-09-28T21:34:19.413Z,98764.50
2022-09-28T21:37:21.173Z,98773.41
2022-09-28T21:40:23.116Z,98774.00
2022-09-28T21:43:25.948Z,98767.63
2022-09-28T21:46:33.954Z,98762.53
2022-09-28T21:49:35.773Z,98773.13
2022-09-28T21:52:37.378Z,98771.34
2022-09-28T21:55:39.077Z,98770.41
2022-09-28T21:58:41.020Z,98770.94
2022-09-28T22:01:44.297Z,98776.69
2022-09-28T22:04:46.040Z,98774.59
2022-09-28T22:07:47.734Z,98779.97
2022-09-28T22:11:00.454Z,98776.44
2022-09-28T22:14:02.157Z,98783.78
2022-09-28T22:17:05.192Z,98780.56
2022-09-28T22:20:07.298Z,98787.63
2022-09-28T22:23:08.992Z,98780.25
2022-09-28T22:26:12.871Z,98786.50
2022-09-28T22:29:14.556Z,98790.50
2022-09-28T22:32:17.605Z,98792.03
2022-09-28T22:35:19.349Z,98792.25
2022-09-28T22:38:22.627Z,98785.44
2022-09-28T22:41:24.892Z,98782.91
2022-09-28T22:44:26.609Z,98791.22
2022-09-28T22:47:29.886Z,98797.19
2022-09-28T22:50:31.827Z,98799.16
2022-09-28T22:53:34.449Z,98789.88
2022-09-28T22:56:36.117Z,98802.28
2022-09-28T22:59:37.766Z,98792.81
2022-09-28T23:02:40.951Z,98792.72
2022-09-28T23:05:51.709Z,98792.81
2022-09-28T23:08:53.477Z,98795.03
2022-09-28T23:11:55.227Z,98791.38
2022-09-28T23:14:56.933Z,98797.97
2022-09-28T23:17:59.900Z,98792.16
2022-09-28T23:21:04.322Z,98790.25
2022-09-28T23:24:06.148Z,98801.16
2022-09-28T23:27:07.878Z,98797.41
2022-09-28T23:30:10.291Z,98796.38
2022-09-28T23:33:14.208Z,98797.44
2022-09-28T23:36:16.359Z,98802.00
2022-09-28T23:39:18.298Z,98808.03
2022-09-28T23:42:20.114Z,98798.53
2022-09-28T23:45:21.792Z,98788.63
2022-09-28T23:48:24.758Z,98795.03
2022-09-28T23:51:26.526Z,98790.34
2022-09-28T23:54:28.148Z,98789.19
2022-09-28T23:57:29.794Z,98796.50
